This is the latest recevied weather packets stored in our database for station/object DB0ROB-10. If no packets are shown the sender has not sent any weather packets the latest 10 day(s).
| Time | Temp. | Humidity | Pressure | Rain* | Wind** | Luminosity | Snow |
|---|---|---|---|---|---|---|---|
| 1777971695 | 16.67° C | 55% | 1009.4 hPa | - | - | - | - |
| 1777970794 | 16.67° C | 55% | 1009.4 hPa | - | - | - | - |
| 1777969893 | 17.22° C | 53% | 1009.4 hPa | - | - | - | - |
| 1777968993 | 16.67° C | 54% | 1009.4 hPa | - | - | - | - |
| 1777968092 | 16.67° C | 54% | 1009.5 hPa | - | - | - | - |
| 1777967200 | 17.22° C | 52% | 1009.7 hPa | - | - | - | - |
| 1777966299 | 16.67° C | 55% | 1009.7 hPa | - | - | - | - |
| 1777965399 | 16.11° C | 56% | 1009.7 hPa | - | - | - | - |
| 1777964499 | 18.33° C | 49% | 1009.7 hPa | - | - | - | - |
| 1777963599 | 18.33° C | 49% | 1009.7 hPa | - | - | - | - |
| 1777962699 | 20° C | 44% | 1009.7 hPa | - | - | - | - |
| 1777961798 | 17.22° C | 50% | 1009.8 hPa | - | - | - | - |
| 1777960897 | 17.22° C | 49% | 1009.8 hPa | - | - | - | - |
| 1777959997 | 16.67° C | 52% | 1009.8 hPa | - | - | - | - |
| 1777959097 | 13.89° C | 61% | 1009.9 hPa | - | - | - | - |
| 1777958196 | 15.56° C | 57% | 1009.9 hPa | - | - | - | - |
| 1777957296 | 13.33° C | 65% | 1010 hPa | - | - | - | - |
| 1777956396 | 12.22° C | 68% | 1010.1 hPa | - | - | - | - |
| 1777955496 | 12.78° C | 66% | 1010.3 hPa | - | - | - | - |
| 1777954596 | 15° C | 57% | 1010.3 hPa | - | - | - | - |
| 1777953695 | 12.22° C | 68% | 1010.3 hPa | - | - | - | - |
| 1777952795 | 11.67° C | 70% | 1010.3 hPa | - | - | - | - |
| 1777951894 | 11.67° C | 72% | 1010.3 hPa | - | - | - | - |
| 1777950994 | 11.11° C | 70% | 1010.5 hPa | - | - | - | - |
| 1777950093 | 11.11° C | 69% | 1010.6 hPa | - | - | - | - |
* Rain since midnight (hover to see other rain measurements)
** Current wind speed in m/s (hover to see current wind gust speed)